sensor_id;sensor_type;location;lat;lon;timestamp;P1;durP1;ratioP1;P2;durP2;ratioP2
75073;SDS011;63652;51.526;5.080;2023-08-06T00:01:25;4.07;;;2.28;;
75073;SDS011;63652;51.526;5.080;2023-08-06T00:03:51;4.13;;;2.42;;
75073;SDS011;63652;51.526;5.080;2023-08-06T00:06:16;4.78;;;2.38;;
75073;SDS011;63652;51.526;5.080;2023-08-06T00:08:42;5.75;;;2.38;;
75073;SDS011;63652;51.526;5.080;2023-08-06T00:11:07;5.40;;;2.40;;
75073;SDS011;63652;51.526;5.080;2023-08-06T00:13:33;4.95;;;2.60;;
75073;SDS011;63652;51.526;5.080;2023-08-06T00:16:11;6.20;;;2.55;;
75073;SDS011;63652;51.526;5.080;2023-08-06T00:18:37;5.85;;;2.28;;
75073;SDS011;63652;51.526;5.080;2023-08-06T00:21:02;5.25;;;2.20;;
75073;SDS011;63652;51.526;5.080;2023-08-06T00:23:28;5.10;;;2.05;;
75073;SDS011;63652;51.526;5.080;2023-08-06T00:25:54;8.73;;;2.83;;
75073;SDS011;63652;51.526;5.080;2023-08-06T00:28:19;4.80;;;2.88;;
75073;SDS011;63652;51.526;5.080;2023-08-06T00:30:44;4.78;;;2.13;;
75073;SDS011;63652;51.526;5.080;2023-08-06T00:33:10;4.32;;;2.10;;
75073;SDS011;63652;51.526;5.080;2023-08-06T00:35:35;3.97;;;2.28;;
75073;SDS011;63652;51.526;5.080;2023-08-06T00:38:00;4.40;;;1.92;;
75073;SDS011;63652;51.526;5.080;2023-08-06T00:40:26;4.97;;;2.10;;
75073;SDS011;63652;51.526;5.080;2023-08-06T00:42:53;4.90;;;2.40;;
75073;SDS011;63652;51.526;5.080;2023-08-06T00:45:19;4.50;;;1.77;;
75073;SDS011;63652;51.526;5.080;2023-08-06T00:47:44;5.50;;;2.30;;
75073;SDS011;63652;51.526;5.080;2023-08-06T00:50:10;4.55;;;2.20;;
75073;SDS011;63652;51.526;5.080;2023-08-06T00:52:36;3.88;;;2.20;;
75073;SDS011;63652;51.526;5.080;2023-08-06T00:55:02;4.65;;;2.15;;
75073;SDS011;63652;51.526;5.080;2023-08-06T00:57:27;6.03;;;2.55;;
75073;SDS011;63652;51.526;5.080;2023-08-06T00:59:53;6.28;;;2.53;;
75073;SDS011;63652;51.526;5.080;2023-08-06T01:02:19;4.10;;;2.05;;
75073;SDS011;63652;51.526;5.080;2023-08-06T01:04:44;5.18;;;1.92;;
75073;SDS011;63652;51.526;5.080;2023-08-06T01:07:14;4.07;;;2.05;;
75073;SDS011;63652;51.526;5.080;2023-08-06T01:09:57;4.95;;;2.03;;
75073;SDS011;63652;51.526;5.080;2023-08-06T01:12:59;4.72;;;2.28;;
75073;SDS011;63652;51.526;5.080;2023-08-06T01:15:30;6.32;;;2.33;;
75073;SDS011;63652;51.526;5.080;2023-08-06T01:18:00;5.10;;;2.10;;
75073;SDS011;63652;51.526;5.080;2023-08-06T01:20:29;6.57;;;2.38;;
75073;SDS011;63652;51.526;5.080;2023-08-06T01:22:55;4.88;;;3.00;;
75073;SDS011;63652;51.526;5.080;2023-08-06T01:25:20;5.07;;;2.40;;
75073;SDS011;63652;51.526;5.080;2023-08-06T01:27:50;4.57;;;2.45;;
75073;SDS011;63652;51.526;5.080;2023-08-06T01:30:16;5.50;;;2.20;;
75073;SDS011;63652;51.526;5.080;2023-08-06T01:32:49;3.70;;;2.10;;
75073;SDS011;63652;51.526;5.080;2023-08-06T01:35:16;3.97;;;2.30;;
75073;SDS011;63652;51.526;5.080;2023-08-06T01:37:42;4.22;;;2.10;;
75073;SDS011;63652;51.526;5.080;2023-08-06T01:40:12;5.20;;;2.33;;
75073;SDS011;63652;51.526;5.080;2023-08-06T01:42:38;8.38;;;2.60;;
75073;SDS011;63652;51.526;5.080;2023-08-06T01:45:04;5.22;;;2.63;;
75073;SDS011;63652;51.526;5.080;2023-08-06T01:47:33;5.00;;;2.50;;
75073;SDS011;63652;51.526;5.080;2023-08-06T01:49:58;7.82;;;2.72;;
75073;SDS011;63652;51.526;5.080;2023-08-06T01:52:24;4.60;;;3.15;;
75073;SDS011;63652;51.526;5.080;2023-08-06T01:54:49;5.10;;;2.88;;
75073;SDS011;63652;51.526;5.080;2023-08-06T01:57:14;6.85;;;2.78;;
75073;SDS011;63652;51.526;5.080;2023-08-06T01:59:40;8.30;;;2.72;;
75073;SDS011;63652;51.526;5.080;2023-08-06T02:02:05;6.25;;;2.85;;
75073;SDS011;63652;51.526;5.080;2023-08-06T02:04:31;5.28;;;2.58;;
75073;SDS011;63652;51.526;5.080;2023-08-06T02:06:56;5.72;;;2.65;;
75073;SDS011;63652;51.526;5.080;2023-08-06T02:09:22;5.07;;;2.60;;
75073;SDS011;63652;51.526;5.080;2023-08-06T02:11:47;5.93;;;3.03;;
75073;SDS011;63652;51.526;5.080;2023-08-06T02:14:12;7.70;;;3.00;;
75073;SDS011;63652;51.526;5.080;2023-08-06T02:16:38;6.72;;;3.42;;
75073;SDS011;63652;51.526;5.080;2023-08-06T02:19:03;5.35;;;2.78;;
75073;SDS011;63652;51.526;5.080;2023-08-06T02:21:28;4.55;;;2.47;;
75073;SDS011;63652;51.526;5.080;2023-08-06T02:23:54;5.35;;;3.10;;
75073;SDS011;63652;51.526;5.080;2023-08-06T02:26:19;6.80;;;3.13;;
75073;SDS011;63652;51.526;5.080;2023-08-06T02:28:45;6.93;;;3.00;;
75073;SDS011;63652;51.526;5.080;2023-08-06T02:31:10;9.65;;;3.20;;
75073;SDS011;63652;51.526;5.080;2023-08-06T02:33:36;7.03;;;3.33;;
75073;SDS011;63652;51.526;5.080;2023-08-06T02:36:01;6.72;;;3.03;;
75073;SDS011;63652;51.526;5.080;2023-08-06T02:38:28;7.10;;;3.58;;
75073;SDS011;63652;51.526;5.080;2023-08-06T02:40:54;5.88;;;3.40;;
75073;SDS011;63652;51.526;5.080;2023-08-06T02:43:19;8.75;;;3.83;;
75073;SDS011;63652;51.526;5.080;2023-08-06T02:45:45;6.88;;;3.10;;
75073;SDS011;63652;51.526;5.080;2023-08-06T02:48:10;6.90;;;3.30;;
75073;SDS011;63652;51.526;5.080;2023-08-06T02:50:42;5.20;;;3.08;;
75073;SDS011;63652;51.526;5.080;2023-08-06T02:53:08;7.68;;;3.05;;
75073;SDS011;63652;51.526;5.080;2023-08-06T02:55:34;7.15;;;3.65;;
75073;SDS011;63652;51.526;5.080;2023-08-06T02:58:00;5.85;;;2.92;;
75073;SDS011;63652;51.526;5.080;2023-08-06T03:00:26;5.80;;;2.78;;
75073;SDS011;63652;51.526;5.080;2023-08-06T03:02:51;8.77;;;3.05;;
75073;SDS011;63652;51.526;5.080;2023-08-06T03:05:16;6.18;;;3.17;;
75073;SDS011;63652;51.526;5.080;2023-08-06T03:07:42;6.75;;;3.58;;
75073;SDS011;63652;51.526;5.080;2023-08-06T03:10:07;8.27;;;3.47;;
75073;SDS011;63652;51.526;5.080;2023-08-06T03:12:33;8.10;;;3.95;;
75073;SDS011;63652;51.526;5.080;2023-08-06T03:14:58;6.28;;;3.30;;
75073;SDS011;63652;51.526;5.080;2023-08-06T03:17:24;8.77;;;3.80;;
75073;SDS011;63652;51.526;5.080;2023-08-06T03:19:51;8.93;;;3.70;;
75073;SDS011;63652;51.526;5.080;2023-08-06T03:22:17;7.00;;;3.33;;
75073;SDS011;63652;51.526;5.080;2023-08-06T03:24:42;8.45;;;3.97;;
75073;SDS011;63652;51.526;5.080;2023-08-06T03:27:08;7.75;;;3.60;;
75073;SDS011;63652;51.526;5.080;2023-08-06T03:29:33;7.80;;;3.88;;
75073;SDS011;63652;51.526;5.080;2023-08-06T03:31:59;6.68;;;3.70;;
75073;SDS011;63652;51.526;5.080;2023-08-06T03:34:27;9.68;;;3.30;;
75073;SDS011;63652;51.526;5.080;2023-08-06T03:36:53;6.88;;;3.45;;
75073;SDS011;63652;51.526;5.080;2023-08-06T03:39:18;7.82;;;4.00;;
75073;SDS011;63652;51.526;5.080;2023-08-06T03:41:44;7.38;;;4.05;;
75073;SDS011;63652;51.526;5.080;2023-08-06T03:44:09;6.82;;;3.35;;
75073;SDS011;63652;51.526;5.080;2023-08-06T03:46:34;10.60;;;3.58;;
75073;SDS011;63652;51.526;5.080;2023-08-06T03:49:00;5.20;;;3.03;;
75073;SDS011;63652;51.526;5.080;2023-08-06T03:51:25;6.10;;;3.63;;
75073;SDS011;63652;51.526;5.080;2023-08-06T03:53:51;7.93;;;3.60;;
75073;SDS011;63652;51.526;5.080;2023-08-06T03:56:16;8.07;;;4.20;;
75073;SDS011;63652;51.526;5.080;2023-08-06T03:58:42;9.45;;;4.22;;
75073;SDS011;63652;51.526;5.080;2023-08-06T04:01:07;15.52;;;4.65;;
75073;SDS011;63652;51.526;5.080;2023-08-06T04:03:33;8.57;;;4.13;;
75073;SDS011;63652;51.526;5.080;2023-08-06T04:05:58;8.57;;;4.32;;
75073;SDS011;63652;51.526;5.080;2023-08-06T04:08:24;8.70;;;4.15;;
75073;SDS011;63652;51.526;5.080;2023-08-06T04:10:53;8.35;;;4.40;;
75073;SDS011;63652;51.526;5.080;2023-08-06T04:13:18;7.10;;;3.70;;
75073;SDS011;63652;51.526;5.080;2023-08-06T04:15:44;10.32;;;4.15;;
75073;SDS011;63652;51.526;5.080;2023-08-06T04:18:09;8.77;;;4.60;;
75073;SDS011;63652;51.526;5.080;2023-08-06T04:20:35;7.90;;;4.10;;
75073;SDS011;63652;51.526;5.080;2023-08-06T04:23:07;8.63;;;4.45;;
75073;SDS011;63652;51.526;5.080;2023-08-06T04:25:33;9.18;;;4.63;;
75073;SDS011;63652;51.526;5.080;2023-08-06T04:27:58;8.20;;;4.60;;
75073;SDS011;63652;51.526;5.080;2023-08-06T04:30:24;9.82;;;4.07;;
75073;SDS011;63652;51.526;5.080;2023-08-06T04:32:49;7.40;;;4.10;;
75073;SDS011;63652;51.526;5.080;2023-08-06T04:35:15;8.02;;;4.30;;
75073;SDS011;63652;51.526;5.080;2023-08-06T04:37:41;9.48;;;3.90;;
75073;SDS011;63652;51.526;5.080;2023-08-06T04:40:06;8.75;;;3.90;;
75073;SDS011;63652;51.526;5.080;2023-08-06T04:42:32;8.23;;;3.95;;
75073;SDS011;63652;51.526;5.080;2023-08-06T04:44:57;7.40;;;3.97;;
75073;SDS011;63652;51.526;5.080;2023-08-06T04:47:23;7.05;;;3.65;;
75073;SDS011;63652;51.526;5.080;2023-08-06T04:49:51;7.97;;;4.13;;
75073;SDS011;63652;51.526;5.080;2023-08-06T04:52:16;6.95;;;3.72;;
75073;SDS011;63652;51.526;5.080;2023-08-06T04:54:43;9.82;;;4.70;;
75073;SDS011;63652;51.526;5.080;2023-08-06T04:57:08;7.88;;;4.65;;
75073;SDS011;63652;51.526;5.080;2023-08-06T04:59:36;8.48;;;4.18;;
75073;SDS011;63652;51.526;5.080;2023-08-06T05:02:02;10.20;;;3.97;;
75073;SDS011;63652;51.526;5.080;2023-08-06T05:04:27;6.88;;;3.97;;
75073;SDS011;63652;51.526;5.080;2023-08-06T05:06:53;8.88;;;4.00;;
75073;SDS011;63652;51.526;5.080;2023-08-06T05:09:19;6.53;;;3.47;;
75073;SDS011;63652;51.526;5.080;2023-08-06T05:11:46;5.38;;;3.13;;
75073;SDS011;63652;51.526;5.080;2023-08-06T05:14:11;4.07;;;2.33;;
75073;SDS011;63652;51.526;5.080;2023-08-06T05:16:37;4.55;;;2.28;;
75073;SDS011;63652;51.526;5.080;2023-08-06T05:19:02;4.68;;;2.35;;
75073;SDS011;63652;51.526;5.080;2023-08-06T05:21:28;3.47;;;2.00;;
75073;SDS011;63652;51.526;5.080;2023-08-06T05:23:53;4.15;;;1.98;;
75073;SDS011;63652;51.526;5.080;2023-08-06T05:26:21;4.00;;;2.20;;
75073;SDS011;63652;51.526;5.080;2023-08-06T05:28:47;3.97;;;2.40;;
75073;SDS011;63652;51.526;5.080;2023-08-06T05:31:12;3.13;;;1.52;;
75073;SDS011;63652;51.526;5.080;2023-08-06T05:33:38;3.72;;;1.88;;
75073;SDS011;63652;51.526;5.080;2023-08-06T05:36:06;4.47;;;2.05;;
75073;SDS011;63652;51.526;5.080;2023-08-06T05:38:31;3.75;;;1.95;;
75073;SDS011;63652;51.526;5.080;2023-08-06T05:40:57;4.40;;;2.13;;
75073;SDS011;63652;51.526;5.080;2023-08-06T05:43:22;4.13;;;2.22;;
75073;SDS011;63652;51.526;5.080;2023-08-06T05:45:50;4.47;;;2.25;;
75073;SDS011;63652;51.526;5.080;2023-08-06T05:48:16;3.72;;;1.55;;
75073;SDS011;63652;51.526;5.080;2023-08-06T05:50:42;2.38;;;1.00;;
75073;SDS011;63652;51.526;5.080;2023-08-06T05:53:07;2.30;;;0.95;;
75073;SDS011;63652;51.526;5.080;2023-08-06T05:55:33;3.65;;;1.60;;
75073;SDS011;63652;51.526;5.080;2023-08-06T05:57:59;3.92;;;1.67;;
75073;SDS011;63652;51.526;5.080;2023-08-06T06:00:24;3.35;;;1.60;;
75073;SDS011;63652;51.526;5.080;2023-08-06T06:02:49;4.35;;;2.05;;
75073;SDS011;63652;51.526;5.080;2023-08-06T06:05:15;3.90;;;1.90;;
75073;SDS011;63652;51.526;5.080;2023-08-06T06:07:40;5.65;;;2.20;;
75073;SDS011;63652;51.526;5.080;2023-08-06T06:10:06;4.68;;;2.30;;
75073;SDS011;63652;51.526;5.080;2023-08-06T06:12:32;5.88;;;2.53;;
75073;SDS011;63652;51.526;5.080;2023-08-06T06:14:57;7.18;;;3.00;;
75073;SDS011;63652;51.526;5.080;2023-08-06T06:17:26;5.85;;;2.75;;
75073;SDS011;63652;51.526;5.080;2023-08-06T06:19:52;4.95;;;2.72;;
75073;SDS011;63652;51.526;5.080;2023-08-06T06:22:17;6.35;;;3.08;;
75073;SDS011;63652;51.526;5.080;2023-08-06T06:24:43;8.55;;;3.47;;
75073;SDS011;63652;51.526;5.080;2023-08-06T06:27:08;7.25;;;3.88;;
75073;SDS011;63652;51.526;5.080;2023-08-06T06:29:34;7.63;;;4.10;;
75073;SDS011;63652;51.526;5.080;2023-08-06T06:31:59;8.50;;;3.78;;
75073;SDS011;63652;51.526;5.080;2023-08-06T06:34:24;6.88;;;3.55;;
75073;SDS011;63652;51.526;5.080;2023-08-06T06:36:50;8.02;;;3.75;;
75073;SDS011;63652;51.526;5.080;2023-08-06T06:39:15;7.97;;;3.63;;
75073;SDS011;63652;51.526;5.080;2023-08-06T06:41:41;7.65;;;4.20;;
75073;SDS011;63652;51.526;5.080;2023-08-06T06:44:06;10.35;;;4.28;;
75073;SDS011;63652;51.526;5.080;2023-08-06T06:46:32;6.75;;;3.88;;
75073;SDS011;63652;51.526;5.080;2023-08-06T06:48:57;14.10;;;5.95;;
75073;SDS011;63652;51.526;5.080;2023-08-06T06:51:22;8.80;;;4.55;;
75073;SDS011;63652;51.526;5.080;2023-08-06T06:53:48;8.68;;;4.35;;
75073;SDS011;63652;51.526;5.080;2023-08-06T06:56:13;11.73;;;4.28;;
75073;SDS011;63652;51.526;5.080;2023-08-06T06:58:39;11.25;;;5.00;;
75073;SDS011;63652;51.526;5.080;2023-08-06T07:01:06;9.70;;;4.93;;
75073;SDS011;63652;51.526;5.080;2023-08-06T07:03:35;8.35;;;4.10;;
75073;SDS011;63652;51.526;5.080;2023-08-06T07:06:00;6.40;;;3.83;;
75073;SDS011;63652;51.526;5.080;2023-08-06T07:08:26;7.05;;;3.85;;
75073;SDS011;63652;51.526;5.080;2023-08-06T07:10:59;10.82;;;5.22;;
75073;SDS011;63652;51.526;5.080;2023-08-06T07:13:28;9.20;;;3.90;;
75073;SDS011;63652;51.526;5.080;2023-08-06T07:15:54;8.05;;;3.97;;
75073;SDS011;63652;51.526;5.080;2023-08-06T07:18:20;4.85;;;2.70;;
75073;SDS011;63652;51.526;5.080;2023-08-06T07:20:52;9.30;;;3.95;;
75073;SDS011;63652;51.526;5.080;2023-08-06T07:23:23;9.45;;;3.38;;
75073;SDS011;63652;51.526;5.080;2023-08-06T07:25:49;13.18;;;3.67;;
75073;SDS011;63652;51.526;5.080;2023-08-06T07:28:15;9.20;;;4.20;;
75073;SDS011;63652;51.526;5.080;2023-08-06T07:30:41;5.68;;;2.70;;
75073;SDS011;63652;51.526;5.080;2023-08-06T07:33:07;6.70;;;2.17;;
75073;SDS011;63652;51.526;5.080;2023-08-06T07:35:33;7.50;;;2.33;;
75073;SDS011;63652;51.526;5.080;2023-08-06T07:37:58;5.43;;;2.13;;
75073;SDS011;63652;51.526;5.080;2023-08-06T07:40:24;6.07;;;1.98;;
75073;SDS011;63652;51.526;5.080;2023-08-06T07:42:49;7.32;;;1.80;;
75073;SDS011;63652;51.526;5.080;2023-08-06T07:45:15;7.93;;;2.03;;
75073;SDS011;63652;51.526;5.080;2023-08-06T07:47:40;7.32;;;2.13;;
75073;SDS011;63652;51.526;5.080;2023-08-06T07:50:06;4.25;;;1.65;;
75073;SDS011;63652;51.526;5.080;2023-08-06T07:52:31;3.53;;;1.52;;
75073;SDS011;63652;51.526;5.080;2023-08-06T07:54:57;6.85;;;1.83;;
75073;SDS011;63652;51.526;5.080;2023-08-06T07:57:23;9.40;;;1.80;;
75073;SDS011;63652;51.526;5.080;2023-08-06T07:59:49;6.88;;;1.75;;
75073;SDS011;63652;51.526;5.080;2023-08-06T08:02:14;6.72;;;2.13;;
75073;SDS011;63652;51.526;5.080;2023-08-06T08:04:39;5.28;;;2.10;;
75073;SDS011;63652;51.526;5.080;2023-08-06T08:07:09;4.53;;;1.75;;
75073;SDS011;63652;51.526;5.080;2023-08-06T08:09:35;7.00;;;2.03;;
75073;SDS011;63652;51.526;5.080;2023-08-06T08:12:01;9.20;;;2.67;;
75073;SDS011;63652;51.526;5.080;2023-08-06T08:14:27;7.00;;;2.45;;
75073;SDS011;63652;51.526;5.080;2023-08-06T08:16:54;6.72;;;1.73;;
75073;SDS011;63652;51.526;5.080;2023-08-06T08:19:19;5.63;;;2.40;;
75073;SDS011;63652;51.526;5.080;2023-08-06T08:21:46;6.80;;;2.33;;
75073;SDS011;63652;51.526;5.080;2023-08-06T08:24:11;3.08;;;1.38;;
75073;SDS011;63652;51.526;5.080;2023-08-06T08:26:37;5.07;;;2.45;;
75073;SDS011;63652;51.526;5.080;2023-08-06T08:29:05;9.85;;;2.80;;
75073;SDS011;63652;51.526;5.080;2023-08-06T08:31:31;10.40;;;2.78;;
75073;SDS011;63652;51.526;5.080;2023-08-06T08:33:57;5.13;;;2.03;;
75073;SDS011;63652;51.526;5.080;2023-08-06T08:36:24;7.22;;;2.35;;
75073;SDS011;63652;51.526;5.080;2023-08-06T08:38:49;7.97;;;2.20;;
75073;SDS011;63652;51.526;5.080;2023-08-06T08:41:18;10.10;;;2.33;;
75073;SDS011;63652;51.526;5.080;2023-08-06T08:43:45;7.57;;;2.40;;
75073;SDS011;63652;51.526;5.080;2023-08-06T08:46:12;11.00;;;2.53;;
75073;SDS011;63652;51.526;5.080;2023-08-06T08:48:38;9.55;;;2.17;;
75073;SDS011;63652;51.526;5.080;2023-08-06T08:51:06;5.22;;;1.92;;
75073;SDS011;63652;51.526;5.080;2023-08-06T08:53:33;7.28;;;1.55;;
75073;SDS011;63652;51.526;5.080;2023-08-06T08:55:59;5.07;;;1.73;;
75073;SDS011;63652;51.526;5.080;2023-08-06T08:58:24;4.07;;;1.50;;
75073;SDS011;63652;51.526;5.080;2023-08-06T09:00:50;5.05;;;1.65;;
75073;SDS011;63652;51.526;5.080;2023-08-06T09:03:15;11.00;;;1.80;;
75073;SDS011;63652;51.526;5.080;2023-08-06T09:05:43;7.68;;;1.55;;
75073;SDS011;63652;51.526;5.080;2023-08-06T09:08:11;8.68;;;1.92;;
75073;SDS011;63652;51.526;5.080;2023-08-06T09:10:37;7.10;;;1.50;;
75073;SDS011;63652;51.526;5.080;2023-08-06T09:13:04;4.43;;;1.20;;
75073;SDS011;63652;51.526;5.080;2023-08-06T09:15:31;5.75;;;1.25;;
75073;SDS011;63652;51.526;5.080;2023-08-06T09:17:57;5.18;;;1.30;;
75073;SDS011;63652;51.526;5.080;2023-08-06T09:20:22;5.70;;;1.10;;
75073;SDS011;63652;51.526;5.080;2023-08-06T09:22:48;6.90;;;2.40;;
75073;SDS011;63652;51.526;5.080;2023-08-06T09:25:23;9.07;;;1.60;;
75073;SDS011;63652;51.526;5.080;2023-08-06T09:27:50;8.05;;;0.90;;
75073;SDS011;63652;51.526;5.080;2023-08-06T09:30:32;3.75;;;1.10;;
75073;SDS011;63652;51.526;5.080;2023-08-06T09:33:00;3.15;;;0.75;;
75073;SDS011;63652;51.526;5.080;2023-08-06T09:35:29;4.75;;;1.25;;
75073;SDS011;63652;51.526;5.080;2023-08-06T09:37:56;4.25;;;1.00;;
75073;SDS011;63652;51.526;5.080;2023-08-06T09:40:32;4.68;;;1.33;;
75073;SDS011;63652;51.526;5.080;2023-08-06T09:42:57;4.47;;;0.93;;
75073;SDS011;63652;51.526;5.080;2023-08-06T09:45:24;4.90;;;0.90;;
75073;SDS011;63652;51.526;5.080;2023-08-06T09:47:59;4.80;;;1.45;;
75073;SDS011;63652;51.526;5.080;2023-08-06T09:50:30;3.92;;;0.88;;
75073;SDS011;63652;51.526;5.080;2023-08-06T09:52:57;3.85;;;1.10;;
75073;SDS011;63652;51.526;5.080;2023-08-06T09:55:23;5.38;;;0.98;;
75073;SDS011;63652;51.526;5.080;2023-08-06T09:57:49;3.10;;;0.85;;
75073;SDS011;63652;51.526;5.080;2023-08-06T10:00:16;3.92;;;1.13;;
75073;SDS011;63652;51.526;5.080;2023-08-06T10:02:42;4.32;;;1.35;;
75073;SDS011;63652;51.526;5.080;2023-08-06T10:05:08;4.95;;;1.27;;
75073;SDS011;63652;51.526;5.080;2023-08-06T10:07:34;6.65;;;1.08;;
75073;SDS011;63652;51.526;5.080;2023-08-06T10:09:59;4.10;;;0.80;;
75073;SDS011;63652;51.526;5.080;2023-08-06T10:12:26;6.28;;;1.33;;
75073;SDS011;63652;51.526;5.080;2023-08-06T10:14:54;5.03;;;1.40;;
75073;SDS011;63652;51.526;5.080;2023-08-06T10:17:21;5.07;;;1.38;;
75073;SDS011;63652;51.526;5.080;2023-08-06T10:19:47;3.75;;;1.40;;
75073;SDS011;63652;51.526;5.080;2023-08-06T10:22:14;5.22;;;0.88;;
75073;SDS011;63652;51.526;5.080;2023-08-06T10:24:59;3.33;;;1.00;;
75073;SDS011;63652;51.526;5.080;2023-08-06T10:27:33;3.45;;;1.00;;
75073;SDS011;63652;51.526;5.080;2023-08-06T10:33:11;3.80;;;1.50;;
75073;SDS011;63652;51.526;5.080;2023-08-06T10:35:40;5.32;;;1.27;;
75073;SDS011;63652;51.526;5.080;2023-08-06T10:40:41;3.58;;;0.90;;
75073;SDS011;63652;51.526;5.080;2023-08-06T10:43:33;3.13;;;1.25;;
75073;SDS011;63652;51.526;5.080;2023-08-06T10:46:09;4.32;;;1.15;;
75073;SDS011;63652;51.526;5.080;2023-08-06T10:48:48;4.00;;;1.27;;
75073;SDS011;63652;51.526;5.080;2023-08-06T10:51:14;3.33;;;1.15;;
75073;SDS011;63652;51.526;5.080;2023-08-06T10:53:43;3.85;;;0.90;;
75073;SDS011;63652;51.526;5.080;2023-08-06T10:56:13;4.60;;;1.27;;
75073;SDS011;63652;51.526;5.080;2023-08-06T10:58:39;3.80;;;1.20;;
75073;SDS011;63652;51.526;5.080;2023-08-06T11:01:05;2.78;;;1.25;;
75073;SDS011;63652;51.526;5.080;2023-08-06T11:03:31;2.45;;;0.80;;
75073;SDS011;63652;51.526;5.080;2023-08-06T11:05:57;6.65;;;0.90;;
75073;SDS011;63652;51.526;5.080;2023-08-06T11:08:26;5.93;;;1.25;;
75073;SDS011;63652;51.526;5.080;2023-08-06T11:10:51;1.98;;;0.63;;
75073;SDS011;63652;51.526;5.080;2023-08-06T11:13:17;2.42;;;0.88;;
75073;SDS011;63652;51.526;5.080;2023-08-06T11:15:44;3.03;;;0.70;;
75073;SDS011;63652;51.526;5.080;2023-08-06T11:18:10;1.88;;;0.80;;
75073;SDS011;63652;51.526;5.080;2023-08-06T11:20:36;2.13;;;1.27;;
75073;SDS011;63652;51.526;5.080;2023-08-06T11:23:01;5.60;;;0.73;;
75073;SDS011;63652;51.526;5.080;2023-08-06T11:25:27;2.70;;;0.60;;
75073;SDS011;63652;51.526;5.080;2023-08-06T11:27:56;4.30;;;0.82;;
75073;SDS011;63652;51.526;5.080;2023-08-06T11:30:21;1.50;;;0.68;;
75073;SDS011;63652;51.526;5.080;2023-08-06T11:32:47;4.80;;;1.02;;
75073;SDS011;63652;51.526;5.080;2023-08-06T11:35:13;5.88;;;1.05;;
75073;SDS011;63652;51.526;5.080;2023-08-06T11:37:42;2.40;;;0.65;;
75073;SDS011;63652;51.526;5.080;2023-08-06T11:40:09;1.88;;;0.70;;
75073;SDS011;63652;51.526;5.080;2023-08-06T11:42:36;4.47;;;1.05;;
75073;SDS011;63652;51.526;5.080;2023-08-06T11:45:02;2.47;;;1.00;;
75073;SDS011;63652;51.526;5.080;2023-08-06T11:47:29;3.83;;;0.70;;
75073;SDS011;63652;51.526;5.080;2023-08-06T11:49:55;3.95;;;0.50;;
75073;SDS011;63652;51.526;5.080;2023-08-06T11:52:21;2.83;;;0.75;;
75073;SDS011;63652;51.526;5.080;2023-08-06T11:55:03;3.58;;;0.70;;
75073;SDS011;63652;51.526;5.080;2023-08-06T11:57:35;3.70;;;0.95;;
75073;SDS011;63652;51.526;5.080;2023-08-06T12:00:02;3.22;;;0.75;;
75073;SDS011;63652;51.526;5.080;2023-08-06T12:02:32;3.15;;;0.80;;
75073;SDS011;63652;51.526;5.080;2023-08-06T12:05:12;2.97;;;0.57;;
75073;SDS011;63652;51.526;5.080;2023-08-06T12:07:42;2.85;;;0.82;;
75073;SDS011;63652;51.526;5.080;2023-08-06T12:10:12;1.38;;;0.55;;
75073;SDS011;63652;51.526;5.080;2023-08-06T12:12:38;3.15;;;0.77;;
75073;SDS011;63652;51.526;5.080;2023-08-06T12:15:04;1.80;;;0.40;;
75073;SDS011;63652;51.526;5.080;2023-08-06T12:17:33;3.65;;;0.50;;
75073;SDS011;63652;51.526;5.080;2023-08-06T12:19:59;5.00;;;0.95;;
75073;SDS011;63652;51.526;5.080;2023-08-06T12:22:27;1.92;;;0.47;;
75073;SDS011;63652;51.526;5.080;2023-08-06T12:24:53;3.15;;;0.47;;
75073;SDS011;63652;51.526;5.080;2023-08-06T12:27:18;3.58;;;0.52;;
75073;SDS011;63652;51.526;5.080;2023-08-06T12:29:44;0.98;;;0.40;;
75073;SDS011;63652;51.526;5.080;2023-08-06T12:32:11;2.35;;;0.68;;
75073;SDS011;63652;51.526;5.080;2023-08-06T12:34:40;2.60;;;0.50;;
75073;SDS011;63652;51.526;5.080;2023-08-06T12:37:07;3.05;;;0.55;;
75073;SDS011;63652;51.526;5.080;2023-08-06T12:39:33;2.53;;;0.68;;
75073;SDS011;63652;51.526;5.080;2023-08-06T12:42:00;7.10;;;0.82;;
75073;SDS011;63652;51.526;5.080;2023-08-06T12:44:26;5.43;;;0.98;;
75073;SDS011;63652;51.526;5.080;2023-08-06T12:46:51;6.95;;;1.00;;
75073;SDS011;63652;51.526;5.080;2023-08-06T12:49:18;2.08;;;0.52;;
75073;SDS011;63652;51.526;5.080;2023-08-06T12:51:46;4.15;;;0.60;;
75073;SDS011;63652;51.526;5.080;2023-08-06T12:54:12;4.65;;;0.60;;
75073;SDS011;63652;51.526;5.080;2023-08-06T12:56:37;4.05;;;0.50;;
75073;SDS011;63652;51.526;5.080;2023-08-06T12:59:02;3.90;;;0.68;;
75073;SDS011;63652;51.526;5.080;2023-08-06T13:01:28;4.40;;;0.68;;
75073;SDS011;63652;51.526;5.080;2023-08-06T13:03:53;4.10;;;0.80;;
75073;SDS011;63652;51.526;5.080;2023-08-06T13:06:18;4.03;;;1.75;;
75073;SDS011;63652;51.526;5.080;2023-08-06T13:08:44;1.67;;;0.52;;
75073;SDS011;63652;51.526;5.080;2023-08-06T13:11:09;4.07;;;0.90;;
75073;SDS011;63652;51.526;5.080;2023-08-06T13:13:35;2.35;;;0.70;;
75073;SDS011;63652;51.526;5.080;2023-08-06T13:16:00;5.88;;;1.10;;
75073;SDS011;63652;51.526;5.080;2023-08-06T13:18:26;3.08;;;0.75;;
75073;SDS011;63652;51.526;5.080;2023-08-06T13:20:55;3.30;;;1.02;;
75073;SDS011;63652;51.526;5.080;2023-08-06T13:23:21;2.25;;;0.65;;
75073;SDS011;63652;51.526;5.080;2023-08-06T13:25:46;3.47;;;1.00;;
75073;SDS011;63652;51.526;5.080;2023-08-06T13:28:11;3.85;;;0.90;;
75073;SDS011;63652;51.526;5.080;2023-08-06T13:30:38;5.13;;;1.10;;
75073;SDS011;63652;51.526;5.080;2023-08-06T13:33:07;3.25;;;1.00;;
75073;SDS011;63652;51.526;5.080;2023-08-06T13:35:33;4.10;;;1.00;;
75073;SDS011;63652;51.526;5.080;2023-08-06T13:37:58;2.65;;;0.80;;
75073;SDS011;63652;51.526;5.080;2023-08-06T13:40:24;3.90;;;0.77;;
75073;SDS011;63652;51.526;5.080;2023-08-06T13:42:49;3.50;;;1.00;;
75073;SDS011;63652;51.526;5.080;2023-08-06T13:45:15;2.92;;;1.30;;
75073;SDS011;63652;51.526;5.080;2023-08-06T13:47:41;4.45;;;1.25;;
75073;SDS011;63652;51.526;5.080;2023-08-06T13:50:06;4.45;;;0.88;;
75073;SDS011;63652;51.526;5.080;2023-08-06T13:52:33;5.68;;;1.65;;
75073;SDS011;63652;51.526;5.080;2023-08-06T13:55:00;2.63;;;1.33;;
75073;SDS011;63652;51.526;5.080;2023-08-06T13:57:25;3.17;;;0.93;;
75073;SDS011;63652;51.526;5.080;2023-08-06T13:59:51;2.13;;;0.95;;
75073;SDS011;63652;51.526;5.080;2023-08-06T14:02:16;2.30;;;0.88;;
75073;SDS011;63652;51.526;5.080;2023-08-06T14:04:42;3.38;;;0.63;;
75073;SDS011;63652;51.526;5.080;2023-08-06T14:07:07;2.75;;;1.20;;
75073;SDS011;63652;51.526;5.080;2023-08-06T14:09:32;4.93;;;0.82;;
75073;SDS011;63652;51.526;5.080;2023-08-06T14:11:59;2.67;;;0.85;;
75073;SDS011;63652;51.526;5.080;2023-08-06T14:14:25;5.30;;;1.00;;
75073;SDS011;63652;51.526;5.080;2023-08-06T14:16:53;2.13;;;0.82;;
75073;SDS011;63652;51.526;5.080;2023-08-06T14:19:19;2.88;;;0.60;;
75073;SDS011;63652;51.526;5.080;2023-08-06T14:21:45;2.30;;;0.68;;
75073;SDS011;63652;51.526;5.080;2023-08-06T14:24:10;3.95;;;0.80;;
75073;SDS011;63652;51.526;5.080;2023-08-06T14:26:36;4.47;;;0.90;;
75073;SDS011;63652;51.526;5.080;2023-08-06T14:29:02;3.78;;;0.70;;
75073;SDS011;63652;51.526;5.080;2023-08-06T14:31:27;2.35;;;0.60;;
75073;SDS011;63652;51.526;5.080;2023-08-06T14:33:55;5.82;;;0.70;;
75073;SDS011;63652;51.526;5.080;2023-08-06T14:36:21;4.95;;;0.50;;
75073;SDS011;63652;51.526;5.080;2023-08-06T14:38:46;6.00;;;0.90;;
75073;SDS011;63652;51.526;5.080;2023-08-06T14:41:12;4.78;;;0.52;;
75073;SDS011;63652;51.526;5.080;2023-08-06T14:43:37;2.60;;;0.50;;
75073;SDS011;63652;51.526;5.080;2023-08-06T14:46:03;2.75;;;0.60;;
75073;SDS011;63652;51.526;5.080;2023-08-06T14:48:28;1.58;;;0.50;;
75073;SDS011;63652;51.526;5.080;2023-08-06T14:50:55;2.78;;;0.50;;